Share

Fort Stockton, TX (79735)

Fort Stockton-Pecos County (KFST) Elev 3009 ft | 30.91 °N, 102.92 °W | Change Station

Current weather conditions updated 17 minutes ago

Clear
Clear
60 °F
Feels Like 60 °F
N
12
Wind Variable Wind from South
Sunrise 7:17 AM
Sunset 8:23 PM
Moon Waning Gibbous

Today is forecast to be Warmer than yesterday.

Pressure 29.93 in
Visibility 10.0 miles
Clouds Clear
Dew Point 57 °F
Humidity 90%
Rainfall 0.00 in
Snow Depth Not available.
UV 0 out of 16
Pollen 7.30 out of 12
Air Quality Not available.
Flu Activity Local Activity
METAR KFST 210953Z AUTO 19010KT 10SM CLR 16/14 A3005 RMK AO2 SLP133 T01560139

More Conditions Fewer Conditions

Pressure 29.93 in
Visibility 10.0 miles
Clouds Clear
Dew Point 57 °F
Humidity 90%
Rainfall 0.00 in
Snow Depth Not available.
UV 0 out of 16
Pollen 7.30 out of 12
Air Quality Not available.
Flu Activity Local Activity
METAR KFST 210953Z AUTO 19010KT 10SM CLR 16/14 A3005 RMK AO2 SLP133 T01560139

More Conditions Fewer Conditions

10-Day Weather Forecast

Almanac

Astronomy

Apr. 21, 2014 Rise Set
Actual Time 7:17 AM CDT 8:23 PM CDT
Civil Twilight 6:52 AM CDT 8:48 PM CDT
Nautical Twilight 6:22 AM CDT 9:18 PM CDT
Astronomical Twilight 5:51 AM CDT 9:49 PM CDT
Moon 1:49 AM CDT 12:51 PM CDT
Length of Visible Light 13h 56m
Length of Day
13h 06m
Tomorrow will be 1m 42s longer.
Waning Gibbous, 60% of the Moon is Illuminated
Today
Waning Gibbous
Apr 22
Last Quarter
Apr 29
New
May 6
First Quarter
May 14
Full

Today's Extremes

State Highs State Lows

Community

  • Snowy Robin
    Snowy Robin
  • Sun Pillar and Geese
    Sun Pillar and Geese
  • Showers on the Way
    Showers on the Way
  • Easter Morning Fog
    Easter Morning Fog
  • Easter Dance
    Easter Dance

WunderPhotos

Upload Photos

1,703,585 photos uploaded!

Nearby

Snow Depth

Station Depth Elevation
No new snow has been reported.

Coastal Water Temperatures

Place Temperature
No Stations Reporting

Earthquake Activity

City Distance Mag. Time & Date
No recent earthquake activity has been reported nearby.
Minimum magnitude displayed is 2.5.

Nearby Weather Stations

There are no personal weather stations in this area.

What do you think?

We're not finished. Please let us know what you like, what you don't like, and what you are still missing.